• Join FlightAware (Why Join?)
  • Login
  • US Flag 
10:45PM EDT


 

Airport Tracker/Info


-or-


 

Live Flight TrackerFlight Track Log ✈ TAP282 ✈ 22-Apr-2013 ✈ FQMA / MPM - LPPT / LIS

Flight Track Log - Related Links

Times and Time Zones

All times are in EDT time to prevent confusion due to time zone crossing. See the TAP282 flight status page for this flight to view local times or setup timezone preferences in your user account.

Time Position Orientation Groundspeed Altitude Reporting Facility
EDT Latitude Longitude Course Direction KTS MPH feet Rate Location/Type
04:59PM -25.6120 32.3555 328° Northwest  Level Estimated
05:00PM -25.5090 32.2834 328° Northwest  Level Estimated
05:01PM -25.4059 32.2114 328° Northwest  Level Estimated
05:02PM -25.3029 32.1395 328° Northwest  Level Estimated
05:03PM -25.1997 32.0677 328° Northwest  Level Estimated
05:04PM -25.0966 31.9961 328° Northwest  Level Estimated
05:05PM -24.9934 31.9246 328° Northwest  Level Estimated
05:06PM -24.8902 31.8532 328° Northwest  Level Estimated
05:07PM -24.7869 31.7819 328° Northwest  Level Estimated
05:08PM -24.6836 31.7108 328° Northwest  Level Estimated
05:09PM -24.5803 31.6398 328° Northwest  Level Estimated
05:10PM -24.4769 31.5688 328° Northwest  Level Estimated
05:11PM -24.3736 31.4981 328° Northwest  Level Estimated
05:12PM -24.2701 31.4274 328° Northwest  Level Estimated
05:13PM -24.1667 31.3568 328° Northwest  Level Estimated
05:14PM -24.0632 31.2863 328° Northwest  Level Estimated
05:15PM -23.9597 31.2160 328° Northwest  Level Estimated
05:16PM -23.8561 31.1458 328° Northwest  Level Estimated
05:17PM -23.7525 31.0756 328° Northwest  Level Estimated
05:18PM -23.6489 31.0056 328° Northwest  Level Estimated
05:19PM -23.5453 30.9357 328° Northwest  Level Estimated
05:20PM -23.4416 30.8660 328° Northwest  Level Estimated
05:21PM -23.3379 30.7963 328° Northwest  Level Estimated
05:22PM -23.2341 30.7267 328° Northwest  Level Estimated
05:23PM -23.1304 30.6572 328° Northwest  Level Estimated
05:24PM -23.0266 30.5879 328° Northwest  Level Estimated
05:25PM -22.9227 30.5187 328° Northwest  Level Estimated
05:26PM -22.8189 30.4495 328° Northwest  Level Estimated
05:27PM -22.7150 30.3805 328° Northwest  Level Estimated
05:28PM -22.6111 30.3116 329° Northwest  Level Estimated
05:29PM -22.5071 30.2427 329° Northwest  Level Estimated
05:30PM -22.4031 30.1740 329° Northwest  Level Estimated
05:31PM -22.2991 30.1054 329° Northwest  Level Estimated
05:32PM -22.1951 30.0369 329° Northwest  Level Estimated
05:33PM -22.0910 29.9685 329° Northwest  Level Estimated
05:34PM -21.9869 29.9002 329° Northwest  Level Estimated
05:35PM -21.8828 29.8319 329° Northwest  Level Estimated
05:36PM -21.7787 29.7638 329° Northwest  Level Estimated
05:37PM -21.6745 29.6958 329° Northwest  Level Estimated
05:38PM -21.5703 29.6279 329° Northwest  Level Estimated
05:39PM -21.4660 29.5601 329° Northwest  Level Estimated
05:40PM -21.3618 29.4924 329° Northwest  Level Estimated
05:41PM -21.2575 29.4247 329° Northwest  Level Estimated
05:42PM -21.1532 29.3572 329° Northwest  Level Estimated
05:43PM -21.0488 29.2898 329° Northwest  Level Estimated
05:44PM -20.9445 29.2224 329° Northwest  Level Estimated
05:45PM -20.8401 29.1552 329° Northwest  Level Estimated
05:46PM -20.7356 29.0880 329° Northwest  Level Estimated
05:47PM -20.6312 29.0210 329° Northwest  Level Estimated
05:48PM -20.5267 28.9540 329° Northwest  Level Estimated
05:49PM -20.4222 28.8871 329° Northwest  Level Estimated
05:50PM -20.3177 28.8203 329° Northwest  Level Estimated
05:51PM -20.2132 28.7536 329° Northwest  Level Estimated
05:52PM -20.1086 28.6870 329° Northwest  Level Estimated
05:53PM -20.0040 28.6205 329° Northwest  Level Estimated
05:54PM -19.8994 28.5541 329° Northwest  Level Estimated
05:55PM -19.7947 28.4877 329° Northwest  Level Estimated
05:56PM -19.6901 28.4215 329° Northwest  Level Estimated
05:57PM -19.5854 28.3553 329° Northwest  Level Estimated
05:58PM -19.4806 28.2892 329° Northwest  Level Estimated
05:59PM -19.3759 28.2232 329° Northwest  Level Estimated
06:00PM -19.2711 28.1573 329° Northwest  Level Estimated
06:01PM -19.1663 28.0915 329° Northwest  Level Estimated
06:02PM -19.0615 28.0257 329° Northwest  Level Estimated
06:03PM -18.9567 27.9601 329° Northwest  Level Estimated
06:04PM -18.8518 27.8945 329° Northwest  Level Estimated
06:05PM -18.7469 27.8290 329° Northwest  Level Estimated
06:06PM -18.6420 27.7636 329° Northwest  Level Estimated
06:07PM -18.5371 27.6982 329° Northwest  Level Estimated
06:08PM -18.4321 27.6330 329° Northwest  Level Estimated
06:09PM -18.3271 27.5678 329° Northwest  Level Estimated
06:10PM -18.2221 27.5027 330° Northwest  Level Estimated
06:11PM -18.1171 27.4377 330° Northwest  Level Estimated
06:12PM -18.0121 27.3728 330° Northwest  Level Estimated
06:13PM -17.9070 27.3079 330° Northwest  Level Estimated
06:14PM -17.8019 27.2431 330° Northwest  Level Estimated
06:15PM -17.6968 27.1784 330° Northwest  Level Estimated
06:16PM -17.5917 27.1138 330° Northwest  Level Estimated
06:17PM -17.4865 27.0492 330° Northwest  Level Estimated
06:18PM -17.3814 26.9848 330° Northwest  Level Estimated
06:19PM -17.2762 26.9203 330° Northwest  Level Estimated
06:20PM -17.1710 26.8560 330° Northwest  Level Estimated
06:21PM -17.0658 26.7917 330° Northwest  Level Estimated
06:22PM -16.9605 26.7276 330° Northwest  Level Estimated
06:23PM -16.8552 26.6634 330° Northwest  Level Estimated
06:24PM -16.7499 26.5994 330° Northwest  Level Estimated
06:25PM -16.6446 26.5354 330° Northwest  Level Estimated
06:26PM -16.5393 26.4715 330° Northwest  Level Estimated
06:27PM -16.4340 26.4076 330° Northwest  Level Estimated
06:28PM -16.3286 26.3439 330° Northwest  Level Estimated
06:29PM -16.2232 26.2802 330° Northwest  Level Estimated
06:30PM -16.1178 26.2166 330° Northwest  Level Estimated
06:31PM -16.0124 26.1530 330° Northwest  Level Estimated
06:32PM -15.9069 26.0895 330° Northwest  Level Estimated
06:33PM -15.8015 26.0261 330° Northwest  Level Estimated
06:34PM -15.6960 25.9627 330° Northwest  Level Estimated
06:35PM -15.5905 25.8994 330° Northwest  Level Estimated
06:36PM -15.4850 25.8362 330° Northwest  Level Estimated
06:37PM -15.3794 25.7730 330° Northwest  Level Estimated
06:38PM -15.2739 25.7099 330° Northwest  Level Estimated
06:39PM -15.1683 25.6469 330° Northwest  Level Estimated
06:40PM -15.0627 25.5839 330° Northwest  Level Estimated
06:41PM -14.9571 25.5210 330° Northwest  Level Estimated
06:42PM -14.8515 25.4581 330° Northwest  Level Estimated
06:43PM -14.7458 25.3953 330° Northwest  Level Estimated
06:44PM -14.6402 25.3326 330° Northwest  Level Estimated
06:45PM -14.5345 25.2699 330° Northwest  Level Estimated
06:46PM -14.4288 25.2073 330° Northwest  Level Estimated
06:47PM -14.3231 25.1448 330° Northwest  Level Estimated
06:48PM -14.2174 25.0823 330° Northwest  Level Estimated
06:49PM -14.1117 25.0198 330° Northwest  Level Estimated
06:50PM -14.0059 24.9575 330° Northwest  Level Estimated
06:51PM -13.9001 24.8951 330° Northwest  Level Estimated
06:52PM -13.7943 24.8329 330° Northwest  Level Estimated
06:53PM -13.6885 24.7707 330° Northwest  Level Estimated
06:54PM -13.5827 24.7085 330° Northwest  Level Estimated
06:55PM -13.4769 24.6465 330° Northwest  Level Estimated
06:56PM -13.3710 24.5844 330° Northwest  Level Estimated
06:57PM -13.2652 24.5224 330° Northwest  Level Estimated
06:58PM -13.1593 24.4605 330° Northwest  Level Estimated
06:59PM -13.0534 24.3986 330° Northwest  Level Estimated
07:00PM -12.9475 24.3368 330° Northwest  Level Estimated
07:01PM -12.8416 24.2750 330° Northwest  Level Estimated
07:02PM -12.7357 24.2133 330° Northwest  Level Estimated
07:03PM -12.6297 24.1516 330° Northwest  Level Estimated
07:04PM -12.5237 24.0900 330° Northwest  Level Estimated
07:05PM -12.4178 24.0285 330° Northwest  Level Estimated
07:06PM -12.3118 23.9669 330° Northwest  Level Estimated
07:07PM -12.2058 23.9055 330° Northwest  Level Estimated
07:08PM -12.0997 23.8440 330° Northwest  Level Estimated
07:09PM -11.9937 23.7827 330° Northwest  Level Estimated
07:10PM -11.8876 23.7213 330° Northwest  Level Estimated
07:11PM -11.7816 23.6601 331° Northwest  Level Estimated
07:12PM -11.6755 23.5989 331° Northwest  Level Estimated
07:13PM -11.5694 23.5377 331° Northwest  Level Estimated
07:14PM -11.4633 23.4765 331° Northwest  Level Estimated
07:15PM -11.3572 23.4155 331° Northwest  Level Estimated
07:16PM -11.2511 23.3544 331° Northwest  Level Estimated
07:17PM -11.1450 23.2934 331° Northwest  Level Estimated
07:18PM -11.0388 23.2325 331° Northwest  Level Estimated
07:19PM -10.9326 23.1716 331° Northwest  Level Estimated
07:20PM -10.8265 23.1107 331° Northwest  Level Estimated
07:21PM -10.7203 23.0499 331° Northwest  Level Estimated
07:22PM -10.6141 22.9891 331° Northwest  Level Estimated
07:23PM -10.5079 22.9284 331° Northwest  Level Estimated
07:24PM -10.4017 22.8677 331° Northwest  Level Estimated
07:25PM -10.2954 22.8070 331° Northwest  Level Estimated
07:26PM -10.1892 22.7464 331° Northwest  Level Estimated
07:27PM -10.0829 22.6858 331° Northwest  Level Estimated
07:28PM -9.9767 22.6253 331° Northwest  Level Estimated
07:29PM -9.8704 22.5648 331° Northwest  Level Estimated
07:30PM -9.7641 22.5044 331° Northwest  Level Estimated
07:31PM -9.6578 22.4440 331° Northwest  Level Estimated
07:32PM -9.5515 22.3836 331° Northwest  Level Estimated
07:33PM -9.4452 22.3232 331° Northwest  Level Estimated
07:34PM -9.3388 22.2629 331° Northwest  Level Estimated
07:35PM -9.2325 22.2027 331° Northwest  Level Estimated
07:36PM -9.1262 22.1425 331° Northwest  Level Estimated
07:37PM -9.0198 22.0823 331° Northwest  Level Estimated
07:38PM -8.9134 22.0221 331° Northwest  Level Estimated
07:39PM -8.8070 21.9620 331° Northwest  Level Estimated
07:40PM -8.7007 21.9019 331° Northwest  Level Estimated
07:41PM -8.5942 21.8418 331° Northwest  Level Estimated
07:42PM -8.4878 21.7818 331° Northwest  Level Estimated
07:43PM -8.3814 21.7218 331° Northwest  Level Estimated
07:44PM -8.2750 21.6619 331° Northwest  Level Estimated
07:45PM -8.1686 21.6020 331° Northwest  Level Estimated
07:46PM -8.0621 21.5421 331° Northwest  Level Estimated
07:47PM -7.9557 21.4822 331° Northwest  Level Estimated
07:48PM -7.8492 21.4224 331° Northwest  Level Estimated
07:49PM -7.7427 21.3626 331° Northwest  Level Estimated
07:50PM -7.6363 21.3028 331° Northwest  Level Estimated
07:51PM -7.5298 21.2431 331° Northwest  Level Estimated
07:52PM -7.4233 21.1834 331° Northwest  Level Estimated
07:53PM -7.3168 21.1237 331° Northwest  Level Estimated
07:54PM -7.2103 21.0640 331° Northwest  Level Estimated
07:55PM -7.1038 21.0044 331° Northwest  Level Estimated
07:56PM -6.9972 20.9448 331° Northwest  Level Estimated
07:57PM -6.8907 20.8853 331° Northwest  Level Estimated
07:58PM -6.7842 20.8257 331° Northwest  Level Estimated
07:59PM -6.6776 20.7662 331° Northwest  Level Estimated
08:00PM -6.5711 20.7067 331° Northwest  Level Estimated
08:01PM -6.4645 20.6473 331° Northwest  Level Estimated
08:02PM -6.3579 20.5878 331° Northwest  Level Estimated
08:03PM -6.2514 20.5284 331° Northwest  Level Estimated
08:04PM -6.1448 20.4690 331° Northwest  Level Estimated
08:05PM -6.0382 20.4097 331° Northwest  Level Estimated
08:06PM -5.9316 20.3503 331° Northwest  Level Estimated
08:07PM -5.8250 20.2910 331° Northwest  Level Estimated
08:08PM -5.7184 20.2317 331° Northwest  Level Estimated
08:09PM -5.6118 20.1724 331° Northwest  Level Estimated
08:10PM -5.5052 20.1132 331° Northwest  Level Estimated
08:11PM -5.3985 20.0540 331° Northwest  Level Estimated
08:12PM -5.2919 19.9947 331° Northwest  Level Estimated
08:13PM -5.1853 19.9356 331° Northwest  Level Estimated
08:14PM -5.0786 19.8764 331° Northwest  Level Estimated
08:15PM -4.9720 19.8172 331° Northwest  Level Estimated
08:16PM -4.8653 19.7581 331° Northwest  Level Estimated
08:17PM -4.7587 19.6990 331° Northwest  Level Estimated
08:18PM -4.6520 19.6399 331° Northwest  Level Estimated
08:19PM -4.5453 19.5808 331° Northwest  Level Estimated
08:20PM -4.4387 19.5218 331° Northwest  Level Estimated
08:21PM -4.3320 19.4627 331° Northwest  Level Estimated
08:22PM -4.2253 19.4037 331° Northwest  Level Estimated
08:23PM -4.1186 19.3447 331° Northwest  Level Estimated
08:24PM -4.0119 19.2857 331° Northwest  Level Estimated
08:25PM -3.9052 19.2267 331° Northwest  Level Estimated
08:26PM -3.7985 19.1678 331° Northwest  Level Estimated
08:27PM -3.6918 19.1088 331° Northwest  Level Estimated
08:28PM -3.5851 19.0499 331° Northwest  Level Estimated
08:29PM -3.4784 18.9910 331° Northwest  Level Estimated
08:30PM -3.3717 18.9321 331° Northwest  Level Estimated
08:31PM -3.2650 18.8732 331° Northwest  Level Estimated
08:32PM -3.1583 18.8143 331° Northwest  Level Estimated
08:33PM -3.0515 18.7554 331° Northwest  Level Estimated
08:34PM -2.9448 18.6966 331° Northwest  Level Estimated
08:35PM -2.8381 18.6377 331° Northwest  Level Estimated
08:36PM -2.7314 18.5789 331° Northwest  Level Estimated
08:37PM -2.6246 18.5201 331° Northwest  Level Estimated
08:38PM -2.5179 18.4613 331° Northwest  Level Estimated
08:39PM -2.4111 18.4025 331° Northwest  Level Estimated
08:40PM -2.3044 18.3437 331° Northwest  Level Estimated
08:41PM -2.1976 18.2849 331° Northwest  Level Estimated
08:42PM -2.0909 18.2261 331° Northwest  Level Estimated
08:43PM -1.9842 18.1673 331° Northwest  Level Estimated
08:44PM -1.8774 18.1086 331° Northwest  Level Estimated
08:45PM -1.7706 18.0498 331° Northwest  Level Estimated
08:46PM -1.6639 17.9911 331° Northwest  Level Estimated
08:47PM -1.5571 17.9323 331° Northwest  Level Estimated
08:48PM -1.4504 17.8736 331° Northwest  Level Estimated
08:49PM -1.3436 17.8149 331° Northwest  Level Estimated
08:50PM -1.2368 17.7561 331° Northwest  Level Estimated
08:51PM -1.1301 17.6974 331° Northwest  Level Estimated
08:52PM -1.0233 17.6387 331° Northwest  Level Estimated
08:53PM -0.9165 17.5800 331° Northwest  Level Estimated
08:54PM -0.8098 17.5213 331° Northwest  Level Estimated
08:55PM -0.7030 17.4626 331° Northwest  Level Estimated
08:56PM -0.5962 17.4039 331° Northwest  Level Estimated
08:57PM -0.4895 17.3452 331° Northwest  Level Estimated
08:58PM -0.3827 17.2865 331° Northwest  Level Estimated
08:59PM -0.2759 17.2278 331° Northwest  Level Estimated
09:00PM -0.1691 17.1691 331° Northwest  Level Estimated
09:01PM -0.0624 17.1104 331° Northwest  Level Estimated
09:02PM 0.0444 17.0517 331° Northwest  Level Estimated
09:03PM 0.1512 16.9930 331° Northwest  Level Estimated
09:04PM 0.2579 16.9343 331° Northwest  Level Estimated
09:05PM 0.3647 16.8756 331° Northwest  Level Estimated
09:06PM 0.4715 16.8169 331° Northwest  Level Estimated
09:07PM 0.5782 16.7582 331° Northwest  Level Estimated
09:08PM 0.6850 16.6995 331° Northwest  Level Estimated
09:09PM 0.7918 16.6408 331° Northwest  Level Estimated
09:10PM 0.8985 16.5821 331° Northwest  Level Estimated
09:11PM 1.0053 16.5234 331° Northwest  Level Estimated
09:12PM 1.1121 16.4647 331° Northwest  Level Estimated
09:13PM 1.2189 16.4060 331° Northwest  Level Estimated
09:14PM 1.3256 16.3472 331° Northwest  Level Estimated
09:15PM 1.4324 16.2885 331° Northwest  Level Estimated
09:16PM 1.5391 16.2298 331° Northwest  Level Estimated
09:17PM 1.6459 16.1710 331° Northwest  Level Estimated
09:18PM 1.7527 16.1123 331° Northwest  Level Estimated
09:19PM 1.8594 16.0535 331° Northwest  Level Estimated
09:20PM 1.9662 15.9948 331° Northwest  Level Estimated
09:21PM 2.0729 15.9360 331° Northwest  Level Estimated
09:22PM 2.1797 15.8772 331° Northwest  Level Estimated
09:23PM 2.2864 15.8184 331° Northwest  Level Estimated
09:24PM 2.3932 15.7597 331° Northwest  Level Estimated
09:25PM 2.4999 15.7008 331° Northwest  Level Estimated
09:26PM 2.6066 15.6420 331° Northwest  Level Estimated
09:27PM 2.7134 15.5832 331° Northwest  Level Estimated
09:28PM 2.8201 15.5244 331° Northwest  Level Estimated
09:29PM 2.9268 15.4656 331° Northwest  Level Estimated
09:30PM 3.0336 15.4067 331° Northwest  Level Estimated
09:31PM 3.1403 15.3478 331° Northwest  Level Estimated
09:32PM 3.2470 15.2889 331° Northwest  Level Estimated
09:33PM 3.3537 15.2301 331° Northwest  Level Estimated
09:34PM 3.4604 15.1712 331° Northwest  Level Estimated
09:35PM 3.5671 15.1122 331° Northwest  Level Estimated
09:36PM 3.6739 15.0533 331° Northwest  Level Estimated
09:37PM 3.7806 14.9944 331° Northwest  Level Estimated
09:38PM 3.8872 14.9354 331° Northwest  Level Estimated
09:39PM 3.9939 14.8764 331° Northwest  Level Estimated
09:40PM 4.1006 14.8174 331° Northwest  Level Estimated
09:41PM 4.2073 14.7584 331° Northwest  Level Estimated
09:42PM 4.3140 14.6994 331° Northwest  Level Estimated
09:43PM 4.4207 14.6404 331° Northwest  Level Estimated
09:44PM 4.5273 14.5813 331° Northwest  Level Estimated
09:45PM 4.6340 14.5223 331° Northwest  Level Estimated
09:46PM 4.7407 14.4632 331° Northwest  Level Estimated
09:47PM 4.8473 14.4041 331° Northwest  Level Estimated
09:48PM 4.9540 14.3449 331° Northwest  Level Estimated
09:49PM 5.0606 14.2858 331° Northwest  Level Estimated
09:50PM 5.1673 14.2266 331° Northwest  Level Estimated
09:51PM 5.2739 14.1674 331° Northwest  Level Estimated
09:52PM 5.3805 14.1082 331° Northwest  Level Estimated
09:53PM 5.4872 14.0490 331° Northwest  Level Estimated
09:54PM 5.5938 13.9898 331° Northwest  Level Estimated
09:55PM 5.7004 13.9305 331° Northwest  Level Estimated
09:56PM 5.8070 13.8712 331° Northwest  Level Estimated
09:57PM 5.9136 13.8119 331° Northwest  Level Estimated
09:58PM 6.0202 13.7526 331° Northwest  Level Estimated
09:59PM 6.1268 13.6932 331° Northwest  Level Estimated
10:00PM 6.2334 13.6338 331° Northwest  Level Estimated
10:01PM 6.3400 13.5744 331° Northwest  Level Estimated
10:02PM 6.4465 13.5150 331° Northwest  Level Estimated
10:03PM 6.5531 13.4555 331° Northwest  Level Estimated
10:04PM 6.6596 13.3960 331° Northwest  Level Estimated
10:05PM 6.7662 13.3365 331° Northwest  Level Estimated
10:06PM 6.8727 13.2770 331° Northwest  Level Estimated
10:07PM 6.9793 13.2174 331° Northwest  Level Estimated
10:08PM 7.0858 13.1578 331° Northwest  Level Estimated
10:09PM 7.1923 13.0982 331° Northwest  Level Estimated
10:10PM 7.2988 13.0386 331° Northwest  Level Estimated
10:11PM 7.4053 12.9789 331° Northwest  Level Estimated
10:12PM 7.5118 12.9192 331° Northwest  Level Estimated
10:13PM 7.6183 12.8595 331° Northwest  Level Estimated
10:14PM 7.7248 12.7997 331° Northwest  Level Estimated
10:15PM 7.8313 12.7399 331° Northwest  Level Estimated
10:16PM 7.9377 12.6801 331° Northwest  Level Estimated
10:17PM 8.0442 12.6203 331° Northwest  Level Estimated
10:18PM 8.1506 12.5604 331° Northwest  Level Estimated
10:19PM 8.2570 12.5005 331° Northwest  Level Estimated
10:20PM 8.3635 12.4405 331° Northwest  Level Estimated
10:21PM 8.4699 12.3805 331° Northwest  Level Estimated
10:22PM 8.5763 12.3205 331° Northwest  Level Estimated
10:23PM 8.6827 12.2605 331° Northwest  Level Estimated
10:24PM 8.7891 12.2004 331° Northwest  Level Estimated
10:25PM 8.8955 12.1403 331° Northwest  Level Estimated
10:26PM 9.0019 12.0801 331° Northwest  Level Estimated
10:27PM 9.1082 12.0199 331° Northwest  Level Estimated
10:28PM 9.2146 11.9597 331° Northwest  Level Estimated
10:29PM 9.3209 11.8995 331° Northwest  Level Estimated
10:30PM 9.4272 11.8392 331° Northwest  Level Estimated
10:31PM 9.5336 11.7788 331° Northwest  Level Estimated
10:32PM 9.6399 11.7185 331° Northwest  Level Estimated
10:33PM 9.7462 11.6581 331° Northwest  Level Estimated
10:34PM 9.8525 11.5976 331° Northwest  Level Estimated
10:35PM 9.9587 11.5371 331° Northwest  Level Estimated
10:36PM 10.0650 11.4766 331° Northwest  Level Estimated
10:37PM 10.1713 11.4160 331° Northwest  Level Estimated
10:38PM 10.2775 11.3554 331° Northwest  Level Estimated
10:39PM 10.3837 11.2948 331° Northwest  Level Estimated
10:40PM 10.4900 11.2341 331° Northwest  Level Estimated
10:41PM 10.5962 11.1734 331° Northwest  Level Estimated
10:42PM 10.7024 11.1126 331° Northwest  Level Estimated
10:43PM 10.8086 11.0518 331° Northwest  Level Estimated
10:44PM 10.9147 10.9909 331° Northwest  Level Estimated
10:45PM 11.0209 10.9300 331° Northwest  Level Estimated
10:46PM 11.1271 10.8691 331° Northwest  Level Estimated
10:47PM 11.2332 10.8081 331° Northwest  Level Estimated
10:48PM 11.3393 10.7471 331° Northwest  Level Estimated
10:49PM 11.4454 10.6860 331° Northwest  Level Estimated
10:50PM 11.5515 10.6249 331° Northwest  Level Estimated
10:51PM 11.6576 10.5637 331° Northwest  Level Estimated
10:52PM 11.7637 10.5025 331° Northwest  Level Estimated
10:53PM 11.8698 10.4412 331° Northwest  Level Estimated
10:54PM 11.9758 10.3799 331° Northwest  Level Estimated
10:55PM 12.0819 10.3186 330° Northwest  Level Estimated
10:56PM 12.1879 10.2571 330° Northwest  Level Estimated
10:57PM 12.2939 10.1957 330° Northwest  Level Estimated
10:58PM 12.3999 10.1342 330° Northwest  Level Estimated
10:59PM 12.5059 10.0726 330° Northwest  Level Estimated
11:00PM 12.6118 10.0110 330° Northwest  Level Estimated
11:01PM 12.7178 9.9494 330° Northwest  Level Estimated
11:02PM 12.8237 9.8876 330° Northwest  Level Estimated
11:03PM 12.9296 9.8259 330° Northwest  Level Estimated
11:04PM 13.0356 9.7641 330° Northwest  Level Estimated
11:05PM 13.1414 9.7022 330° Northwest  Level Estimated
11:06PM 13.2473 9.6403 330° Northwest  Level Estimated
11:07PM 13.3532 9.5783 330° Northwest  Level Estimated
11:08PM 13.4591 9.5163 330° Northwest  Level Estimated
11:09PM 13.5649 9.4542 330° Northwest  Level Estimated
11:10PM 13.6707 9.3921 330° Northwest  Level Estimated
11:11PM 13.7765 9.3299 330° Northwest  Level Estimated
11:12PM 13.8823 9.2676 330° Northwest  Level Estimated
11:13PM 13.9881 9.2053 330° Northwest  Level Estimated
11:14PM 14.0938 9.1429 330° Northwest  Level Estimated
11:15PM 14.1996 9.0805 330° Northwest  Level Estimated
11:16PM 14.3053 9.0180 330° Northwest  Level Estimated
11:17PM 14.4110 8.9555 330° Northwest  Level Estimated
11:18PM 14.5167 8.8929 330° Northwest  Level Estimated
11:19PM 14.6224 8.8302 330° Northwest  Level Estimated
11:20PM 14.7280 8.7675 330° Northwest  Level Estimated
11:21PM 14.8337 8.7047 330° Northwest  Level Estimated
11:22PM 14.9393 8.6419 330° Northwest  Level Estimated
11:23PM 15.0449 8.5790 330° Northwest  Level Estimated
11:24PM 15.1505 8.5160 330° Northwest  Level Estimated
11:25PM 15.2561 8.4530 330° Northwest  Level Estimated
11:26PM 15.3616 8.3899 330° Northwest  Level Estimated
11:27PM 15.4672 8.3267 330° Northwest  Level Estimated
11:28PM 15.5727 8.2635 330° Northwest  Level Estimated
11:29PM 15.6782 8.2002 330° Northwest  Level Estimated
11:30PM 15.7837 8.1369 330° Northwest  Level Estimated
11:31PM 15.8891 8.0735 330° Northwest  Level Estimated
11:32PM 15.9946 8.0100 330° Northwest  Level Estimated
11:33PM 16.1000 7.9464 330° Northwest  Level Estimated
11:34PM 16.2054 7.8828 330° Northwest  Level Estimated
11:35PM 16.3108 7.8191 330° Northwest  Level Estimated
11:36PM 16.4162 7.7554 330° Northwest  Level Estimated
11:37PM 16.5215 7.6915 330° Northwest  Level Estimated
11:38PM 16.6269 7.6276 330° Northwest  Level Estimated
11:39PM 16.7322 7.5637 330° Northwest  Level Estimated
11:40PM 16.8375 7.4997 330° Northwest  Level Estimated
11:41PM 16.9428 7.4356 330° Northwest  Level Estimated
11:42PM 17.0480 7.3714 330° Northwest  Level Estimated
11:43PM 17.1532 7.3071 330° Northwest  Level Estimated
11:44PM 17.2584 7.2428 330° Northwest  Level Estimated
11:45PM 17.3636 7.1784 330° Northwest  Level Estimated
11:46PM 17.4688 7.1139 330° Northwest  Level Estimated
11:47PM 17.5739 7.0494 330° Northwest  Level Estimated
11:48PM 17.6791 6.9848 330° Northwest  Level Estimated
11:49PM 17.7842 6.9201 330° Northwest  Level Estimated
11:50PM 17.8893 6.8553 330° Northwest  Level Estimated
11:51PM 17.9944 6.7904 330° Northwest  Level Estimated
11:52PM 18.0994 6.7255 330° Northwest  Level Estimated
11:53PM 18.2044 6.6605 330° Northwest  Level Estimated
11:54PM 18.3094 6.5954 330° Northwest  Level Estimated
11:55PM 18.4144 6.5303 330° Northwest  Level Estimated
11:56PM 18.5194 6.4650 329° Northwest  Level Estimated
11:57PM 18.6243 6.3997 329° Northwest  Level Estimated
11:58PM 18.7292 6.3343 329° Northwest  Level Estimated
11:59PM 18.8341 6.2688 329° Northwest  Level Estimated
12:00AM 18.9389 6.2033 329° Northwest  Level Estimated
12:01AM 19.0438 6.1376 329° Northwest  Level Estimated
12:02AM 19.1486 6.0719 329° Northwest  Level Estimated
12:03AM 19.2534 6.0061 329° Northwest  Level Estimated
12:04AM 19.3582 5.9402 329° Northwest  Level Estimated
12:05AM 19.4629 5.8742 329° Northwest  Level Estimated
12:06AM 19.5677 5.8081 329° Northwest  Level Estimated
12:07AM 19.6724 5.7420 329° Northwest  Level Estimated
12:08AM 19.7770 5.6757 329° Northwest  Level Estimated
12:09AM 19.8817 5.6094 329° Northwest  Level Estimated
12:10AM 19.9863 5.5430 329° Northwest  Level Estimated
12:11AM 20.0909 5.4765 329° Northwest  Level Estimated
12:12AM 20.1955 5.4099 329° Northwest  Level Estimated
12:13AM 20.3001 5.3432 329° Northwest  Level Estimated
12:14AM 20.4046 5.2765 329° Northwest  Level Estimated
12:15AM 20.5091 5.2096 329° Northwest  Level Estimated
12:16AM 20.6136 5.1427 329° Northwest  Level Estimated
12:17AM 20.7180 5.0756 329° Northwest  Level Estimated
12:18AM 20.8224 5.0085 329° Northwest  Level Estimated
12:19AM 20.9268 4.9412 329° Northwest  Level Estimated
12:20AM 21.0312 4.8739 329° Northwest  Level Estimated
12:21AM 21.1355 4.8065 329° Northwest  Level Estimated
12:22AM 21.2399 4.7390 329° Northwest  Level Estimated
12:23AM 21.3442 4.6714 329° Northwest  Level Estimated
12:24AM 21.4484 4.6037 329° Northwest  Level Estimated
12:25AM 21.5527 4.5359 329° Northwest  Level Estimated
12:26AM 21.6569 4.4680 329° Northwest  Level Estimated
12:27AM 21.7611 4.4000 329° Northwest  Level Estimated
12:28AM 21.8652 4.3319 329° Northwest  Level Estimated
12:29AM 21.9693 4.2637 329° Northwest  Level Estimated
12:30AM 22.0734 4.1954 329° Northwest  Level Estimated
12:31AM 22.1775 4.1270 329° Northwest  Level Estimated
12:32AM 22.2815 4.0585 329° Northwest  Level Estimated
12:33AM 22.3856 3.9899 329° Northwest  Level Estimated
12:34AM 22.4895 3.9212 329° Northwest  Level Estimated
12:35AM 22.5935 3.8523 329° Northwest  Level Estimated
12:36AM 22.6974 3.7834 329° Northwest  Level Estimated
12:37AM 22.8013 3.7144 329° Northwest  Level Estimated
12:38AM 22.9052 3.6453 328° Northwest  Level Estimated
12:39AM 23.0090 3.5761 328° Northwest  Level Estimated
12:40AM 23.1128 3.5067 328° Northwest  Level Estimated
12:41AM 23.2166 3.4373 328° Northwest  Level Estimated
12:42AM 23.3204 3.3677 328° Northwest  Level Estimated
12:43AM 23.4241 3.2981 328° Northwest  Level Estimated
12:44AM 23.5278 3.2283 328° Northwest  Level Estimated
12:45AM 23.6314 3.1584 328° Northwest  Level Estimated
12:46AM 23.7350 3.0884 328° Northwest  Level Estimated
12:47AM 23.8386 3.0183 328° Northwest  Level Estimated
12:48AM 23.9422 2.9481 328° Northwest  Level Estimated
12:49AM 24.0457 2.8778 328° Northwest  Level Estimated
12:50AM 24.1492 2.8074 328° Northwest  Level Estimated
12:51AM 24.2527 2.7368 328° Northwest  Level Estimated
12:52AM 24.3561 2.6662 328° Northwest  Level Estimated
12:53AM 24.4595 2.5954 328° Northwest  Level Estimated
12:54AM 24.5629 2.5245 328° Northwest  Level Estimated
12:55AM 24.6662 2.4535 328° Northwest  Level Estimated
12:56AM 24.7695 2.3823 328° Northwest  Level Estimated
12:57AM 24.8727 2.3111 328° Northwest  Level Estimated
12:58AM 24.9760 2.2397 328° Northwest  Level Estimated
12:59AM 25.0792 2.1682 328° Northwest  Level Estimated
01:00AM 25.1823 2.0966 328° Northwest  Level Estimated
01:01AM 25.2854 2.0249 328° Northwest  Level Estimated
01:02AM 25.3885 1.9530 328° Northwest  Level Estimated
01:03AM 25.4916 1.8811 328° Northwest  Level Estimated
01:04AM 25.5946 1.8090 328° Northwest  Level Estimated
01:05AM 25.6976 1.7367 328° Northwest  Level Estimated
01:06AM 25.8006 1.6644 328° Northwest  Level Estimated
01:07AM 25.9035 1.5919 328° Northwest  Level Estimated
01:08AM 26.0063 1.5193 328° Northwest  Level Estimated
01:09AM 26.1092 1.4466 328° Northwest  Level Estimated
01:10AM 26.2120 1.3737 328° Northwest  Level Estimated
01:11AM 26.3148 1.3007 328° Northwest  Level Estimated
01:12AM 26.4175 1.2276 327° Northwest  Level Estimated
01:13AM 26.5202 1.1544 327° Northwest  Level Estimated
01:14AM 26.6229 1.0810 327° Northwest  Level Estimated
01:15AM 26.7255 1.0075 327° Northwest  Level Estimated
01:16AM 26.8281 0.9338 327° Northwest  Level Estimated
01:17AM 26.9306 0.8601 327° Northwest  Level Estimated
01:18AM 27.0331 0.7861 327° Northwest  Level Estimated
01:19AM 27.1356 0.7121 327° Northwest  Level Estimated
01:20AM 27.2380 0.6379 327° Northwest  Level Estimated
01:21AM 27.3404 0.5636 327° Northwest  Level Estimated
01:22AM 27.4427 0.4892 327° Northwest  Level Estimated
01:23AM 27.5450 0.4146 327° Northwest  Level Estimated
01:24AM 27.6473 0.3398 327° Northwest  Level Estimated
01:25AM 27.7495 0.2650 327° Northwest  Level Estimated
01:26AM 27.8517 0.1900 327° Northwest  Level Estimated
01:27AM 27.9539 0.1148 327° Northwest  Level Estimated
01:28AM 28.0560 0.0395 327° Northwest  Level Estimated
01:29AM 28.1581 -0.0359 327° Northwest  Level Estimated
01:30AM 28.2601 -0.1115 327° Northwest  Level Estimated
01:31AM 28.3621 -0.1872 327° Northwest  Level Estimated
01:32AM 28.4640 -0.2631 327° Northwest  Level Estimated
01:33AM 28.5659 -0.3391 327° Northwest  Level Estimated
01:34AM 28.6678 -0.4153 327° Northwest  Level Estimated
01:35AM 28.7696 -0.4916 327° Northwest  Level Estimated
01:36AM 28.8713 -0.5681 327° Northwest  Level Estimated
01:37AM 28.9731 -0.6447 327° Northwest  Level Estimated
01:38AM 29.0748 -0.7214 327° Northwest  Level Estimated
01:39AM 29.1764 -0.7984 327° Northwest  Level Estimated
01:40AM 29.2780 -0.8754 327° Northwest  Level Estimated
01:41AM 29.3795 -0.9527 326° Northwest  Level Estimated
01:42AM 29.4811 -1.0300 326° Northwest  Level Estimated
01:43AM 29.5825 -1.1076 326° Northwest  Level Estimated
01:44AM 29.6839 -1.1853 326° Northwest  Level Estimated
01:45AM 29.7853 -1.2631 326° Northwest  Level Estimated
01:46AM 29.8866 -1.3411 326° Northwest  Level Estimated
01:47AM 29.9879 -1.4193 326° Northwest  Level Estimated
01:48AM 30.0891 -1.4976 326° Northwest  Level Estimated
01:49AM 30.1903 -1.5761 326° Northwest  Level Estimated
01:50AM 30.2915 -1.6547 326° Northwest  Level Estimated
01:51AM 30.3926 -1.7335 326° Northwest  Level Estimated
01:52AM 30.4936 -1.8125 326° Northwest  Level Estimated
01:53AM 30.5946 -1.8916 326° Northwest  Level Estimated
01:54AM 30.6956 -1.9709 326° Northwest  Level Estimated
01:55AM 30.7965 -2.0504 326° Northwest  Level Estimated
01:56AM 30.8973 -2.1300 326° Northwest  Level Estimated
01:57AM 30.9981 -2.2098 326° Northwest  Level Estimated
01:58AM 31.0989 -2.2898 326° Northwest  Level Estimated
01:59AM 31.1996 -2.3699 326° Northwest  Level Estimated
02:00AM 31.3002 -2.4502 326° Northwest  Level Estimated
02:01AM 31.4008 -2.5307 326° Northwest  Level Estimated
02:02AM 31.5014 -2.6114 326° Northwest  Level Estimated
02:03AM 31.6019 -2.6922 326° Northwest  Level Estimated
02:04AM 31.7024 -2.7732 326° Northwest  Level Estimated
02:05AM 31.8027 -2.8544 326° Northwest  Level Estimated
02:06AM 31.9031 -2.9357 325° Northwest  Level Estimated
02:07AM 32.0034 -3.0172 325° Northwest  Level Estimated
02:08AM 32.1036 -3.0989 325° Northwest  Level Estimated
02:09AM 32.2038 -3.1808 325° Northwest  Level Estimated
02:10AM 32.3040 -3.2629 325° Northwest  Level Estimated
02:11AM 32.4041 -3.3452 325° Northwest  Level Estimated
02:11AM 35.5860 -1.4540 325° Northwest 458 527 40,000  Level FlightAware
02:12AM 32.5041 -3.4276 325° Northwest  Level Estimated
02:12AM 35.6300 -1.5520 299° West 458 527 40,000  Level FlightAware
02:14AM 35.7287 -1.7647 300° West  Level Estimated
02:14AM 35.7380 -1.7890 300° West 459 528 40,000  Level FlightAware
02:14AM 35.7850 -1.8930 299° West 456 525 40,000  Level FlightAware
02:15AM 35.8180 -1.9660 299° West 452 520 40,000  Level FlightAware
02:16AM 35.8630 -2.0680 299° West 459 528 40,000  Level FlightAware
02:16AM 35.9090 -2.1760 298° West 458 527 40,000  Level FlightAware
02:17AM 35.9470 -2.2660 298° West 450 518 40,000  Level FlightAware
02:18AM 35.9870 -2.3590 298° West 449 517 40,000  Level FlightAware
02:18AM 36.0270 -2.4540 298° West 450 518 40,000  Level FlightAware
02:19AM 36.0680 -2.5500 298° West 451 519 40,000  Level FlightAware
02:20AM 36.1110 -2.6540 297° West 443 510 40,000  Level FlightAware
02:21AM 36.1480 -2.7420 298° West 441 507 40,000  Level FlightAware
02:21AM 36.1920 -2.8450 298° West 440 506 40,000  Level FlightAware
02:22AM 36.2290 -2.9350 297° West 441 507 40,000  Level FlightAware
02:23AM 36.2660 -3.0230 298° West 442 509 40,000  Level FlightAware
02:23AM 36.3090 -3.1280 297° West 446 513 40,000  Level FlightAware
02:24AM 36.3480 -3.2220 297° West 453 521 40,000  Level FlightAware
02:25AM 36.3920 -3.3280 297° West 449 517 40,000  Level FlightAware
02:25AM 36.4290 -3.4180 297° West 449 517 40,000  Level FlightAware
02:26AM 36.4680 -3.5130 297° West 449 517 40,000  Level FlightAware
02:27AM 36.5070 -3.6080 297° West 443 510 40,000  Level FlightAware
02:28AM 36.5470 -3.7050 297° West 439 505 40,000  Level FlightAware
02:28AM 36.5880 -3.8060 297° West 430 495 40,000  Level FlightAware
02:29AM 36.6240 -3.8960 297° West 426 490 40,000  Level FlightAware
02:30AM 36.6640 -3.9960 297° West 421 484 40,000  Level FlightAware
02:31AM 36.7310 -4.1620 297° West 426 490 40,000  Level FlightAware
02:33AM 36.8610 -4.4810 299° West 428 493 40,000  Level FlightAware
02:34AM 36.8765 -4.4905 299° West  Level Estimated
02:36AM 36.9817 -4.7545 299° West  Level Estimated
02:36AM 36.9940 -4.7930 299° West 426 490 40,000  Level FlightAware
02:37AM 37.0620 -4.9550 298° West 427 491 40,000  Level FlightAware
02:38AM 37.1360 -5.1170 300° West 426 490 40,000  Level FlightAware
02:41AM 37.2652 -5.4148 299° West  Level Estimated
02:41AM 37.2780 -5.4290 299° West 424 488 40,000  Level FlightAware
02:42AM 37.3450 -5.5780 300° West 421 484 40,000  Level FlightAware
02:43AM 37.3940 -5.6880 299° West 420 483 40,000  Level FlightAware
02:43AM 37.4340 -5.7760 300° West 422 486 40,000  Level FlightAware
02:44AM 37.4790 -5.8750 300° West 422 486 40,000  Level FlightAware
02:45AM 37.5170 -5.9590 300° West 421 484 40,000  Level FlightAware
02:46AM 37.5590 -6.0530 299° West 420 483 40,000  Level FlightAware
02:46AM 37.5960 -6.1350 300° West 419 482 40,000  Level FlightAware
02:47AM 37.6350 -6.2220 300° West 420 483 40,000  Level FlightAware
02:48AM 37.6760 -6.3140 299° West 422 486 40,000  Level FlightAware
02:48AM 37.7140 -6.3990 299° West 424 488 40,000 -360 Level FlightAware
02:49AM 37.7570 -6.4980 299° West 425 489 39,500 -1,080 Descending FlightAware
02:50AM 37.7960 -6.5850 300° West 432 497 38,500 -2,100 Descending FlightAware
02:50AM 37.8400 -6.6860 299° West 437 503 36,600 -2,220 Descending FlightAware
02:51AM 37.8790 -6.7740 299° West 431 496 35,400 -1,800 Descending FlightAware
02:52AM 37.9170 -6.8610 299° West 420 483 34,200 -1,860 Descending FlightAware
02:53AM 37.9600 -6.9580 299° West 413 475 32,800 -1,980 Descending FlightAware
02:53AM 37.9940 -7.0460 296° West 426 490 31,400 -1,980 Descending FlightAware
02:54AM 38.0210 -7.1520 288° West 417 480 30,000 -1,800 Descending FlightAware
02:55AM 38.0470 -7.2440 290° West 410 472 28,900 -1,680 Descending FlightAware
02:55AM 38.0710 -7.3350 289° West 404 465 27,800 -1,740 Descending FlightAware
02:56AM 38.0950 -7.4240 289° West 400 460 26,600 -1,800 Descending FlightAware
02:57AM 38.1220 -7.5240 289° West 395 455 25,300 -1,740 Descending FlightAware
02:57AM 38.1450 -7.6100 289° West 389 448 24,200 -1,740 Descending FlightAware
02:58AM 38.1710 -7.7080 289° West 382 440 22,900 -1,740 Descending FlightAware
02:59AM 38.1930 -7.7910 289° West 377 434 21,800 -1,680 Descending FlightAware
02:59AM 38.2150 -7.8760 288° West 372 428 20,700 -1,620 Descending FlightAware
03:00AM 38.2330 -7.9430 289° West 368 423 19,800 -1,680 Descending FlightAware
03:01AM 38.2600 -8.0480 288° West 360 414 18,400 -1,620 Descending FlightAware
03:02AM 38.2820 -8.1330 288° West 356 410 17,300 -1,680 Descending FlightAware
03:02AM 38.3050 -8.2210 288° West 349 402 16,100 -1,740 Descending FlightAware
03:03AM 38.3280 -8.3100 288° West 345 397 14,900 -1,680 Descending FlightAware
03:04AM 38.3480 -8.3870 288° West 344 396 13,800 -1,680 Descending FlightAware
03:04AM 38.3680 -8.4660 288° West 341 392 12,700 -1,560 Descending FlightAware
03:05AM 38.3900 -8.5510 288° West 335 386 11,600 -1,560 Descending FlightAware
03:06AM 38.4090 -8.6250 288° West 330 380 10,500 -1,380 Descending FlightAware
03:06AM 38.4240 -8.6820 289° West 319 367 10,000 -780 Descending FlightAware
03:07AM 38.4340 -8.7220 288° West 301 346 9,800 -1,020 Descending FlightAware
03:07AM 38.4470 -8.7740 288° West 296 341 9,100 -1,440 Descending FlightAware
03:08AM 38.4600 -8.8260 288° West 295 339 8,400 -1,440 Descending FlightAware
03:08AM 38.4700 -8.8660 288° West 294 338 7,800 -1,320 Descending FlightAware
03:09AM 38.4830 -8.9160 288° West 290 334 7,200 -1,200 Descending FlightAware
03:09AM 38.4890 -8.9410 287° West 289 333 6,900 -1,380 Descending FlightAware
03:09AM 38.5000 -8.9840 288° West 290 334 6,300 -1,200 Descending FlightAware
03:10AM 38.5120 -9.0310 288° West 282 325 5,800 -1,020 Descending FlightAware
03:10AM 38.5220 -9.0730 287° West 284 327 5,400 -840 Descending FlightAware
03:11AM 38.5300 -9.1060 287° West 280 322 5,100 -900 Descending FlightAware
03:11AM 38.5450 -9.1610 289° West 272 313 4,500 -1,080 Descending FlightAware
03:11AM 38.5490 -9.1770 288° West 267 307 4,300 -1,200 Descending FlightAware
03:12AM 38.5600 -9.1970 305° West 258 297 4,000 -1,020 Descending FlightAware
03:12AM 38.5720 -9.2110 318° Northwest 250 288 3,800 -840 Descending FlightAware
03:12AM 38.6030 -9.2260 339° North 233 268 3,400 -900 Descending FlightAware
03:13AM 38.6140 -9.2280 352° North 218 251 3,200 -720 Descending FlightAware
03:13AM 38.6280 -9.2220 19° North 198 228 3,100 -720 Descending FlightAware
03:13AM 38.6490 -9.2080 28° Northeast 176 203 2,700 -840 Descending FlightAware
03:14AM 38.6610 -9.2020 21° North 170 196 2,500 -900 Descending FlightAware
03:14AM 38.6900 -9.1860 23° Northeast 156 180 1,900 -900 Descending FlightAware
03:15AM 38.7080 -9.1760 23° Northeast 142 163 1,500 -840 Descending FlightAware
03:15AM 38.7210 -9.1680 26° Northeast 123 142 1,200 -780 Descending FlightAware
03:15AM 38.7320 -9.1620 23° Northeast 124 143 1,000 -600 Descending FlightAware
03:16AM 38.7480 -9.1540 21° North 125 144 700 -660 Descending FlightAware
03:16AM 38.7610 -9.1470 23° Northeast 122 140 400 -420 Descending FlightAware
03:17AM 38.7770 -9.1380 24° Northeast 122 140 300 -180 Descending FlightAware
03:20AM 38.7813 -9.1359 21° North  Level Estimated
03:21AM 38.7813 -9.1359 38° Northeast  Level Estimated